Time;durP1;ratioP1;P1;durP2;ratioP2;P2;SDS_P1;SDS_P2;PMS_P1;PMS_P2;Temp;Humidity;BMP_temperature;BMP_pressure;BME280_temperature;BME280_humidity;BME280_pressure;Samples;Min_cycle;Max_cycle;Signal;HPM_P1;HPM_P2
2022/02/09 00:10:01;;;;;;;5.00;2.53;;;9.60;99.90;;;;;;5073364;28;21135;-71
2022/02/09 00:12:34;;;;;;;3.27;2.47;;;9.60;99.90;;;;;;5071661;28;20464;-70
2022/02/09 00:36:05;;;;;;;2.33;1.83;;;9.40;99.90;;;;;;5071480;28;20599;-70
2022/02/09 01:57:35;;;;;;;2.37;1.90;;;9.60;99.90;;;;;;5079822;28;20913;-70
2022/02/09 02:00:00;;;;;;;2.97;2.13;;;9.60;99.90;;;;;;5079734;28;21056;-68
2022/02/09 02:02:26;;;;;;;2.93;2.20;;;9.70;99.90;;;;;;5078770;28;20443;-69
2022/02/09 02:04:52;;;;;;;2.20;1.83;;;9.70;99.90;;;;;;5078229;28;20258;-69
2022/02/09 02:07:34;;;;;;;3.77;2.07;;;9.70;99.90;;;;;;5078916;28;20194;-69
2022/02/09 02:10:06;;;;;;;3.63;2.33;;;9.60;99.90;;;;;;5078210;28;20359;-69
2022/02/09 02:12:35;;;;;;;2.40;1.90;;;9.70;99.90;;;;;;5081510;28;21138;-69
2022/02/09 02:15:24;;;;;;;8.63;2.10;;;9.70;99.90;;;;;;5081682;28;20436;-69
2022/02/09 02:17:49;;;;;;;2.53;1.90;;;9.80;99.90;;;;;;5081298;28;20837;-68
2022/02/09 02:20:49;;;;;;;4.03;2.27;;;9.80;99.90;;;;;;5081612;28;20835;-69
2022/02/09 02:23:29;;;;;;;5.23;1.90;;;9.80;99.90;;;;;;5081300;28;20794;-69
2022/02/09 02:28:49;;;;;;;2.67;2.13;;;9.80;99.90;;;;;;5078840;28;21466;-69
2022/02/09 02:39:18;;;;;;;3.87;2.10;;;10.00;99.90;;;;;;5075952;28;20428;-68
2022/02/09 02:47:35;;;;;;;2.87;2.57;;;9.90;99.90;;;;;;5066747;28;20949;-69
2022/02/09 03:09:45;;;;;;;6.10;2.80;;;9.80;99.90;;;;;;5078410;28;20435;-70
2022/02/09 03:12:10;;;;;;;4.20;2.30;;;9.70;99.90;;;;;;5078352;28;20521;-70
2022/02/09 03:17:06;;;;;;;4.03;2.83;;;9.70;99.90;;;;;;5077367;28;20436;-69
2022/02/09 03:19:48;;;;;;;5.20;2.83;;;9.90;99.90;;;;;;5076116;28;20179;-69
2022/02/09 03:56:41;;;;;;;4.10;2.53;;;10.00;99.90;;;;;;5079255;28;20892;-70
2022/02/09 03:59:06;;;;;;;4.33;2.63;;;9.90;99.90;;;;;;5080519;28;20503;-69
2022/02/09 04:01:36;;;;;;;3.70;2.60;;;9.80;99.90;;;;;;5078255;28;20934;-69
2022/02/09 04:04:02;;;;;;;2.63;2.10;;;9.90;99.90;;;;;;5077723;28;20191;-69
2022/02/09 04:06:33;;;;;;;3.70;2.57;;;9.90;99.90;;;;;;5077945;28;20433;-72
2022/02/09 04:09:00;;;;;;;4.60;2.80;;;9.90;99.90;;;;;;5076544;28;20191;-69
2022/02/09 04:11:32;;;;;;;3.00;2.53;;;9.90;99.90;;;;;;5076712;28;20590;-72
2022/02/09 04:14:07;;;;;;;3.77;2.47;;;10.00;99.90;;;;;;5077092;28;20437;-69
2022/02/09 04:44:17;;;;;;;6.20;3.50;;;9.50;99.90;;;;;;5075219;28;20440;-70
2022/02/09 04:47:20;;;;;;;5.33;3.47;;;9.40;99.90;;;;;;5078348;28;20505;-70
2022/02/09 05:01:01;;;;;;;4.90;3.47;;;9.20;99.90;;;;;;5079441;28;20495;-70
2022/02/09 05:20:30;;;;;;;5.90;4.23;;;8.80;99.90;;;;;;5077975;28;20432;-69
2022/02/09 05:27:53;;;;;;;5.90;4.73;;;8.70;99.90;;;;;;5076486;28;21058;-69
2022/02/09 05:30:19;;;;;;;9.53;5.20;;;8.80;99.90;;;;;;5076954;28;20467;-70
2022/02/09 05:32:47;;;;;;;9.70;5.30;;;8.70;99.90;;;;;;5074759;28;20464;-70
2022/02/09 05:35:14;;;;;;;6.07;5.07;;;8.70;99.90;;;;;;5077895;28;20239;-70
2022/02/09 05:37:39;;;;;;;7.60;4.90;;;8.70;99.90;;;;;;5075416;28;20483;-71
2022/02/09 05:40:06;;;;;;;6.90;5.03;;;8.70;99.90;;;;;;5074105;28;20496;-71
2022/02/09 05:42:32;;;;;;;11.17;5.90;;;8.70;99.90;;;;;;5077206;28;20316;-70
2022/02/09 05:45:04;;;;;;;10.83;5.90;;;8.70;99.90;;;;;;5075779;28;20901;-70
2022/02/09 05:57:53;;;;;;;7.80;4.87;;;8.80;99.90;;;;;;5073065;28;20445;-70
2022/02/09 06:00:21;;;;;;;10.83;5.20;;;8.80;99.90;;;;;;5074283;28;20496;-70
2022/02/09 06:02:47;;;;;;;10.50;5.70;;;8.70;99.90;;;;;;5076459;28;20448;-70
2022/02/09 06:05:14;;;;;;;7.13;5.03;;;8.70;99.90;;;;;;5074340;28;20452;-70
2022/02/09 06:07:40;;;;;;;9.00;4.67;;;8.70;99.90;;;;;;5072718;28;20189;-70
2022/02/09 06:10:17;;;;;;;9.93;5.43;;;8.60;99.90;;;;;;5074386;28;20513;-70
2022/02/09 06:12:54;;;;;;;8.30;4.93;;;8.60;99.90;;;;;;5076603;28;20602;-71
2022/02/09 06:20:30;;;;;;;8.53;5.17;;;8.60;99.90;;;;;;5074053;28;20304;-70
2022/02/09 06:22:55;;;;;;;6.70;4.07;;;8.50;99.90;;;;;;5075393;28;20459;-71
2022/02/09 06:25:23;;;;;;;9.70;5.27;;;8.30;99.90;;;;;;5074312;28;20445;-71
2022/02/09 06:27:50;;;;;;;8.60;4.80;;;8.40;99.90;;;;;;5075693;28;20273;-72
2022/02/09 06:30:16;;;;;;;11.37;4.87;;;8.30;99.90;;;;;;5076301;28;20844;-71
2022/02/09 06:32:42;;;;;;;12.70;5.20;;;8.30;99.90;;;;;;5075406;28;20479;-70
2022/02/09 06:35:08;;;;;;;7.87;5.07;;;8.30;99.90;;;;;;5073883;28;20440;-70
2022/02/09 06:37:45;;;;;;;10.60;4.90;;;8.40;99.90;;;;;;5076001;28;20187;-69
2022/02/09 06:40:17;;;;;;;14.13;5.23;;;8.40;99.90;;;;;;5075175;28;20923;-71
2022/02/09 06:42:43;;;;;;;9.13;6.00;;;8.40;99.90;;;;;;5076600;28;20435;-70
2022/02/09 06:45:15;;;;;;;9.80;5.63;;;8.40;99.90;;;;;;5077644;28;20934;-71
2022/02/09 06:47:41;;;;;;;9.50;5.23;;;8.40;99.90;;;;;;5076087;28;20761;-70
2022/02/09 06:50:12;;;;;;;9.40;5.23;;;8.30;99.90;;;;;;5076603;28;20463;-70
2022/02/09 06:52:40;;;;;;;10.03;6.00;;;8.30;99.90;;;;;;5080990;28;20202;-71
2022/02/09 06:57:46;;;;;;;8.50;5.80;;;8.10;99.90;;;;;;5077067;28;20805;-70
2022/02/09 07:00:12;;;;;;;11.10;5.57;;;8.10;99.90;;;;;;5080175;28;20800;-70
2022/02/09 07:02:41;;;;;;;11.13;5.33;;;8.20;99.90;;;;;;5079511;28;20501;-70
2022/02/09 07:05:08;;;;;;;7.33;4.50;;;8.30;99.90;;;;;;5077307;28;20531;-70
2022/02/09 07:07:34;;;;;;;8.50;5.10;;;8.30;99.90;;;;;;5077020;28;20439;-70
2022/02/09 07:09:59;;;;;;;8.93;5.73;;;8.20;99.90;;;;;;5077790;28;20609;-70
2022/02/09 07:12:25;;;;;;;8.00;4.90;;;8.30;99.90;;;;;;5077081;28;20285;-70
2022/02/09 07:14:53;;;;;;;7.10;4.70;;;8.30;99.90;;;;;;5069506;28;20190;-70
2022/02/09 07:17:18;;;;;;;11.77;5.57;;;8.30;99.90;;;;;;5071420;28;20533;-70
2022/02/09 07:19:51;;;;;;;8.47;4.50;;;8.50;99.90;;;;;;5069885;28;20923;-70
2022/02/09 07:22:23;;;;;;;11.53;5.47;;;8.50;99.90;;;;;;5074580;28;20288;-71
2022/02/09 07:24:50;;;;;;;7.77;4.77;;;8.50;99.90;;;;;;5073213;28;20494;-70
2022/02/09 07:27:38;;;;;;;11.67;4.60;;;8.20;99.90;;;;;;5071307;28;20961;-69
2022/02/09 07:30:06;;;;;;;8.57;4.80;;;8.20;99.90;;;;;;5074013;28;20455;-69
2022/02/09 07:32:32;;;;;;;7.07;4.40;;;8.10;99.90;;;;;;5075990;28;20942;-70
2022/02/09 07:34:58;;;;;;;10.00;4.57;;;8.00;99.90;;;;;;5078134;28;20436;-69
2022/02/09 07:37:24;;;;;;;8.07;4.17;;;8.10;99.90;;;;;;5076138;28;21213;-68
2022/02/09 07:39:49;;;;;;;9.03;4.67;;;8.00;99.90;;;;;;5072139;28;20183;-69
2022/02/09 07:42:22;;;;;;;12.80;5.97;;;8.00;99.90;;;;;;5073855;28;20186;-68
2022/02/09 07:47:48;;;;;;;12.30;5.67;;;7.90;99.90;;;;;;5072643;28;20444;-70
2022/02/09 07:52:48;;;;;;;10.13;4.93;;;7.80;99.90;;;;;;5075756;28;20818;-69
2022/02/09 07:55:16;;;;;;;12.37;6.20;;;7.70;99.90;;;;;;5072717;28;20835;-70
2022/02/09 07:57:41;;;;;;;10.07;5.93;;;7.50;99.90;;;;;;5075983;28;20440;-71
2022/02/09 08:00:08;;;;;;;14.53;6.00;;;7.50;99.90;;;;;;5077321;28;20456;-70
2022/02/09 08:02:34;;;;;;;14.10;7.47;;;7.50;99.90;;;;;;5076107;28;20186;-67
2022/02/09 08:05:00;;;;;;;10.87;5.50;;;7.50;99.90;;;;;;5075836;28;20432;-68
2022/02/09 08:07:27;;;;;;;10.93;6.30;;;7.50;99.90;;;;;;5074213;28;20202;-69
2022/02/09 08:09:55;;;;;;;9.40;5.80;;;7.60;99.90;;;;;;5078243;28;20294;-70
2022/02/09 08:12:35;;;;;;;9.77;5.97;;;7.60;99.90;;;;;;5075876;28;20472;-69
2022/02/09 08:30:58;;;;;;;7.97;5.60;;;7.80;99.90;;;;;;5073566;28;20213;-70
2022/02/09 08:33:24;;;;;;;9.40;5.53;;;7.80;99.90;;;;;;5074302;28;20487;-71
2022/02/09 08:35:52;;;;;;;7.77;4.90;;;7.70;99.90;;;;;;5067927;28;20441;-72
2022/02/09 08:38:17;;;;;;;9.50;5.23;;;7.70;99.90;;;;;;5073927;28;20178;-71
2022/02/09 08:40:46;;;;;;;11.00;6.80;;;7.70;99.90;;;;;;5073868;28;20553;-71
2022/02/09 08:43:12;;;;;;;13.50;6.10;;;7.80;99.90;;;;;;5073538;28;20274;-73
2022/02/09 08:45:42;;;;;;;8.30;5.17;;;7.80;99.90;;;;;;5070632;28;20452;-70
2022/02/09 08:48:09;;;;;;;9.70;6.00;;;7.80;99.90;;;;;;5074237;28;20444;-67
2022/02/09 08:50:35;;;;;;;11.53;5.87;;;7.80;99.90;;;;;;5072098;28;20469;-70
2022/02/09 08:53:01;;;;;;;9.80;5.97;;;7.90;99.90;;;;;;5080182;28;20505;-68
2022/02/09 08:55:27;;;;;;;11.07;5.07;;;7.90;99.90;;;;;;5075549;28;20468;-70
2022/02/09 08:57:53;;;;;;;10.40;6.07;;;7.90;99.90;;;;;;5072271;28;20553;-70
2022/02/09 09:00:28;;;;;;;12.90;5.00;;;7.90;99.90;;;;;;5073625;28;20451;-69
2022/02/09 09:03:10;;;;;;;8.57;6.03;;;7.90;99.90;;;;;;5074762;28;20436;-70
2022/02/09 09:05:50;;;;;;;13.57;5.30;;;8.00;99.90;;;;;;5075306;28;20557;-69
2022/02/09 09:11:29;;;;;;;10.20;6.47;;;8.00;99.90;;;;;;5073945;28;20495;-71
2022/02/09 10:03:13;;;;;;;5.37;3.93;;;9.10;99.90;;;;;;5071456;28;21028;-70
2022/02/09 10:33:56;;;;;;;7.10;4.27;;;9.30;99.90;;;;;;5077587;28;20467;-72
2022/02/09 10:36:22;;;;;;;9.67;4.70;;;9.30;99.90;;;;;;5075206;28;20449;-71
2022/02/09 10:38:51;;;;;;;9.57;4.30;;;9.40;99.90;;;;;;5079296;28;20429;-69
2022/02/09 10:41:27;;;;;;;10.63;4.20;;;9.40;99.90;;;;;;5077958;28;20981;-71
2022/02/09 10:44:07;;;;;;;11.43;4.80;;;9.40;99.90;;;;;;5081103;28;20523;-70
2022/02/09 10:46:46;;;;;;;7.60;3.73;;;9.40;99.90;;;;;;5078995;28;20450;-70
2022/02/09 10:49:12;;;;;;;7.00;4.30;;;9.50;99.90;;;;;;5079500;28;20540;-73
2022/02/09 10:52:20;;;;;;;5.33;3.57;;;9.50;99.90;;;;;;5077390;28;21103;-70
2022/02/09 10:54:30;;;;;;;9.73;4.03;;;9.50;99.90;;;;;;5071250;28;20214;-73
2022/02/09 10:56:59;;;;;;;5.70;3.97;;;9.60;99.90;;;;;;5065805;28;20437;-74
2022/02/09 10:59:27;;;;;;;7.60;3.97;;;9.60;99.90;;;;;;5070982;28;20432;-73
2022/02/09 11:01:54;;;;;;;7.70;4.63;;;9.60;99.90;;;;;;5073166;28;20544;-72
2022/02/09 11:04:21;;;;;;;7.03;4.00;;;9.70;99.90;;;;;;5074902;28;20452;-73
2022/02/09 11:06:48;;;;;;;6.90;4.20;;;9.70;99.90;;;;;;5071461;28;20489;-71
2022/02/09 11:09:15;;;;;;;13.33;4.30;;;9.80;99.90;;;;;;5076064;28;20424;-70
2022/02/09 11:11:42;;;;;;;5.80;3.63;;;9.90;99.90;;;;;;5076214;28;20475;-72
2022/02/09 11:14:14;;;;;;;9.43;4.10;;;9.90;99.90;;;;;;5072226;28;20581;-73
2022/02/09 11:16:46;;;;;;;6.90;4.00;;;9.90;99.90;;;;;;5075964;28;20425;-70
2022/02/09 11:19:15;;;;;;;6.73;4.23;;;10.00;99.90;;;;;;5076266;28;20511;-72
2022/02/09 11:21:44;;;;;;;8.20;4.23;;;10.00;99.90;;;;;;5073425;28;20777;-75
2022/02/09 11:24:19;;;;;;;10.40;4.47;;;10.00;99.90;;;;;;5075695;28;20433;-75
2022/02/09 11:26:54;;;;;;;6.37;4.13;;;10.10;99.90;;;;;;5072972;28;20577;-76
2022/02/09 11:35:00;;;;;;;9.20;6.07;;;10.30;99.90;;;;;;5073067;28;20428;-70
2022/02/09 11:40:52;;;;;;;5.30;4.50;;;10.40;99.90;;;;;;5074316;28;20471;-68
2022/02/09 11:51:36;;;;;;;8.23;4.60;;;10.50;99.90;;;;;;5073949;28;20472;-72
2022/02/09 12:11:06;;;;;;;7.87;5.00;;;11.00;99.90;;;;;;5072998;28;20470;-68
2022/02/09 12:19:34;;;;;;;5.73;4.80;;;14.10;99.90;;;;;;5068632;28;20473;-70
2022/02/09 12:22:13;;;;;;;8.33;5.33;;;14.40;99.90;;;;;;5070973;28;20946;-71
2022/02/09 12:24:41;;;;;;;7.03;4.90;;;15.20;99.90;;;;;;5065951;28;20429;-71
2022/02/09 12:27:15;;;;;;;9.93;4.60;;;15.70;99.90;;;;;;5068407;28;20455;-71
2022/02/09 12:29:44;;;;;;;7.57;4.80;;;16.00;99.90;;;;;;5068627;28;20895;-71
2022/02/09 12:32:16;;;;;;;6.83;4.10;;;17.00;99.90;;;;;;5068937;28;20464;-71
2022/02/09 12:35:08;;;;;;;6.40;4.43;;;18.40;99.90;;;;;;5070800;28;20437;-71
2022/02/09 12:37:39;;;;;;;7.37;4.87;;;18.80;99.90;;;;;;5068938;28;20848;-71
2022/02/09 12:40:09;;;;;;;6.27;3.60;;;19.50;96.40;;;;;;5067944;28;20869;-71
2022/02/09 12:42:38;;;;;;;5.87;4.33;;;20.40;92.20;;;;;;5068784;28;20803;-71
2022/02/09 12:45:14;;;;;;;6.50;3.97;;;20.90;84.40;;;;;;5067973;28;20459;-71
2022/02/09 12:47:43;;;;;;;7.20;4.03;;;20.50;80.10;;;;;;5066954;28;20433;-71
2022/02/09 12:50:14;;;;;;;5.03;3.70;;;20.40;77.80;;;;;;5072127;28;20456;-71
2022/02/09 12:52:42;;;;;;;5.10;3.90;;;20.50;75.40;;;;;;5070734;28;20542;-71
2022/02/09 12:55:14;;;;;;;3.70;3.40;;;20.90;73.60;;;;;;5070395;28;20432;-71
2022/02/09 12:57:46;;;;;;;5.93;3.80;;;21.20;69.80;;;;;;5075130;28;20527;-71
2022/02/09 13:00:24;;;;;;;5.37;3.40;;;22.30;69.30;;;;;;5071386;28;21260;-71
2022/02/09 13:02:51;;;;;;;8.50;4.10;;;22.90;63.20;;;;;;5071917;28;20429;-70
2022/02/09 13:05:16;;;;;;;4.40;3.33;;;22.90;61.40;;;;;;5069413;28;20501;-71
2022/02/09 13:07:53;;;;;;;3.63;3.33;;;23.60;59.00;;;;;;5071636;28;20444;-71
2022/02/09 13:10:30;;;;;;;7.37;4.10;;;23.30;56.40;;;;;;5065600;28;20217;-69
2022/02/09 13:13:01;;;;;;;7.33;3.40;;;22.60;57.20;;;;;;5068565;28;20865;-72
2022/02/09 13:15:35;;;;;;;7.70;4.10;;;22.90;56.50;;;;;;5070584;28;20742;-72
2022/02/09 14:11:39;;;;;;;8.07;3.93;;;17.60;70.50;;;;;;5074202;28;20521;-72
2022/02/09 14:14:50;;;;;;;4.33;3.50;;;17.40;71.40;;;;;;5070340;28;21312;-73
2022/02/09 14:23:47;;;;;;;4.90;4.00;;;17.00;73.70;;;;;;5073033;28;20444;-69
2022/02/09 14:57:19;;;;;;;4.50;3.90;;;14.30;91.70;;;;;;5072195;28;20817;-69
2022/02/09 15:02:11;;;;;;;4.40;3.63;;;14.30;92.00;;;;;;5074121;28;20463;-72
2022/02/09 15:09:55;;;;;;;10.20;4.30;;;14.20;92.90;;;;;;5076921;28;20492;-72
2022/02/09 15:13:17;;;;;;;7.60;3.57;;;14.30;93.60;;;;;;5076327;28;20893;-71
2022/02/09 15:20:46;;;;;;;5.27;3.00;;;14.50;93.20;;;;;;5075239;28;21217;-76
2022/02/09 15:23:12;;;;;;;6.60;3.57;;;14.40;93.50;;;;;;5078338;28;23185;-70
2022/02/09 15:25:38;;;;;;;3.93;3.30;;;14.40;93.80;;;;;;5075871;28;20429;-72
2022/02/09 15:28:05;;;;;;;11.63;7.03;;;14.50;93.90;;;;;;5077479;28;20427;-78
2022/02/09 15:30:41;;;;;;;4.10;3.10;;;14.40;93.60;;;;;;5076972;28;20308;-76
2022/02/09 15:33:07;;;;;;;4.60;3.10;;;14.30;94.50;;;;;;5074942;28;20474;-80
2022/02/09 15:35:37;;;;;;;4.13;3.37;;;14.30;94.50;;;;;;5077727;28;20425;-78
2022/02/09 15:38:21;;;;;;;6.60;3.20;;;14.30;94.70;;;;;;5074862;28;20433;-73
2022/02/09 16:33:09;;;;;;;4.83;3.00;;;13.50;98.00;;;;;;5070303;28;20493;-76
2022/02/09 16:37:22;;;;;;;3.47;3.03;;;13.30;98.80;;;;;;5071276;28;20841;-73
2022/02/09 16:45:08;;;;;;;4.97;3.70;;;13.30;99.90;;;;;;5065687;28;20444;-74
2022/02/09 16:47:55;;;;;;;5.20;3.50;;;13.30;99.90;;;;;;5067635;28;20472;-74
2022/02/09 16:50:26;;;;;;;4.97;3.63;;;13.10;99.90;;;;;;5072683;28;20449;-76
2022/02/09 16:53:00;;;;;;;4.70;3.33;;;13.20;99.90;;;;;;5072059;28;20523;-75
2022/02/09 17:19:44;;;;;;;5.30;3.60;;;12.80;99.90;;;;;;5074227;28;20468;-75
2022/02/09 17:22:10;;;;;;;4.83;4.20;;;12.70;99.90;;;;;;5074166;28;20523;-75
2022/02/09 17:24:38;;;;;;;6.00;4.30;;;12.60;99.90;;;;;;5072157;28;20194;-75
2022/02/09 17:27:07;;;;;;;5.50;3.93;;;12.60;99.90;;;;;;5073930;28;21228;-76
2022/02/09 17:29:56;;;;;;;5.43;4.33;;;12.50;99.90;;;;;;5076054;28;20444;-75
2022/02/09 17:33:08;;;;;;;3.67;3.20;;;12.60;99.90;;;;;;5071985;28;20608;-76
2022/02/09 17:35:17;;;;;;;6.30;3.47;;;12.60;99.90;;;;;;5072894;28;20598;-75
2022/02/09 17:57:07;;;;;;;3.70;3.40;;;12.30;99.90;;;;;;5075552;28;20431;-75
2022/02/09 18:02:55;;;;;;;5.57;3.40;;;12.20;99.90;;;;;;5094940;22;20508;-70
2022/02/09 18:05:25;;;;;;;3.90;3.50;;;12.10;99.90;;;;;;5074062;28;20442;-70
2022/02/09 18:07:56;;;;;;;7.13;4.70;;;12.10;99.90;;;;;;5070172;28;20436;-70
2022/02/09 18:29:01;;;;;;;8.30;4.50;;;12.00;99.90;;;;;;5073074;28;20490;-72
2022/02/09 18:31:36;;;;;;;6.50;4.50;;;11.80;99.90;;;;;;5069463;28;20448;-72
2022/02/09 18:34:34;;;;;;;9.90;4.73;;;11.90;99.90;;;;;;5073773;28;20799;-72
2022/02/09 18:45:05;;;;;;;6.67;5.90;;;11.60;99.90;;;;;;5078407;28;20468;-72
2022/02/09 19:05:53;;;;;;;15.17;9.17;;;11.60;99.90;;;;;;5078580;28;20491;-72
2022/02/09 19:51:04;;;;;;;23.40;14.50;;;11.10;99.90;;;;;;5075284;28;20508;-71
2022/02/09 19:54:06;;;;;;;19.40;14.37;;;11.20;99.90;;;;;;5073986;28;20465;-71
2022/02/09 19:56:34;;;;;;;19.40;14.40;;;11.10;99.90;;;;;;5076548;28;20491;-71
2022/02/09 19:59:09;;;;;;;19.50;13.60;;;11.00;99.90;;;;;;5077335;28;20465;-71
2022/02/09 20:01:37;;;;;;;23.47;14.33;;;11.00;99.90;;;;;;5074540;28;20447;-71
2022/02/09 20:04:04;;;;;;;26.00;18.60;;;11.10;99.90;;;;;;5076196;28;20844;-72
2022/02/09 20:06:30;;;;;;;27.70;19.80;;;11.20;99.90;;;;;;5076244;28;20473;-72
2022/02/09 20:08:56;;;;;;;26.80;16.17;;;11.30;99.90;;;;;;5074890;28;20441;-71
2022/02/09 20:11:24;;;;;;;26.27;15.10;;;11.30;99.90;;;;;;5074303;28;20446;-71
2022/02/09 20:13:53;;;;;;;18.50;10.77;;;11.10;99.90;;;;;;5077030;28;20242;-71
2022/02/09 20:16:20;;;;;;;14.43;9.63;;;11.10;99.90;;;;;;5074401;28;20445;-71
2022/02/09 20:18:50;;;;;;;12.40;9.00;;;11.10;99.90;;;;;;5072046;28;20557;-71
2022/02/09 20:21:17;;;;;;;13.60;9.50;;;10.90;99.90;;;;;;5075356;28;20440;-71
2022/02/09 20:23:42;;;;;;;18.83;9.70;;;10.70;99.90;;;;;;5074431;28;20800;-71
2022/02/09 20:26:11;;;;;;;16.43;11.97;;;10.80;99.90;;;;;;5075689;28;20433;-71
2022/02/09 20:28:41;;;;;;;15.70;11.10;;;10.80;99.90;;;;;;5079607;28;20179;-71
2022/02/09 20:31:11;;;;;;;14.53;9.97;;;10.50;99.90;;;;;;5076652;28;20463;-71
2022/02/09 20:33:43;;;;;;;14.90;9.97;;;10.70;99.90;;;;;;5080182;28;20453;-71
2022/02/09 20:36:11;;;;;;;12.17;10.07;;;10.70;99.90;;;;;;5076693;28;20438;-71
2022/02/09 20:38:38;;;;;;;15.63;9.80;;;10.50;99.90;;;;;;5075395;28;20452;-71
2022/02/09 20:41:07;;;;;;;14.43;9.33;;;10.60;99.90;;;;;;5074635;28;20468;-71
2022/02/09 20:43:39;;;;;;;13.50;9.50;;;10.60;99.90;;;;;;5075392;28;20875;-71
2022/02/09 20:46:07;;;;;;;14.17;8.80;;;10.60;99.90;;;;;;5077404;28;20440;-71
2022/02/09 20:48:32;;;;;;;14.20;9.50;;;10.60;99.90;;;;;;5073965;28;20522;-71
2022/02/09 20:51:01;;;;;;;13.57;8.93;;;10.50;99.90;;;;;;5074104;28;20540;-71
2022/02/09 20:53:28;;;;;;;14.40;10.07;;;10.40;99.90;;;;;;5076910;28;20210;-71
2022/02/09 20:55:54;;;;;;;10.97;7.87;;;10.40;99.90;;;;;;5076381;28;20430;-71
2022/02/09 20:58:21;;;;;;;13.17;8.93;;;10.40;99.90;;;;;;5074761;28;20461;-71
2022/02/09 21:03:26;;;;;;;21.83;9.97;;;10.40;99.90;;;;;;5077340;28;20965;-71
2022/02/09 21:06:07;;;;;;;18.10;8.67;;;10.30;99.90;;;;;;5075010;28;20424;-71
2022/02/09 21:58:04;;;;;;;14.50;8.97;;;9.30;99.90;;;;;;5072848;28;20444;-77
2022/02/09 22:06:23;;;;;;;15.40;8.10;;;9.40;99.90;;;;;;5071895;28;21007;-76
2022/02/09 22:19:44;;;;;;;10.93;6.63;;;9.20;99.90;;;;;;5079957;28;20477;-74
2022/02/09 22:22:39;;;;;;;14.23;8.83;;;8.90;99.90;;;;;;5080443;28;20195;-74
2022/02/09 22:27:57;;;;;;;9.80;7.67;;;8.90;99.90;;;;;;5080359;28;20450;-75
2022/02/09 22:56:51;;;;;;;10.80;7.67;;;9.10;99.90;;;;;;5081309;28;20494;-76
2022/02/09 22:59:33;;;;;;;7.47;5.97;;;8.80;99.90;;;;;;5076382;28;20465;-75
2022/02/09 23:02:04;;;;;;;9.43;7.23;;;8.90;99.90;;;;;;5077107;28;20249;-76
2022/02/09 23:07:25;;;;;;;10.30;7.40;;;9.00;99.90;;;;;;5073826;28;20886;-75
2022/02/09 23:12:37;;;;;;;10.77;6.77;;;8.70;99.90;;;;;;5082381;28;20759;-76
2022/02/09 23:18:23;;;;;;;9.33;6.80;;;8.70;99.90;;;;;;5078456;28;20826;-76
2022/02/09 23:21:15;;;;;;;9.23;6.03;;;8.80;99.90;;;;;;5078017;28;20444;-76
2022/02/09 23:54:11;;;;;;;8.50;6.50;;;8.40;99.90;;;;;;5078338;28;20528;-75
